Time;durP1;ratioP1;P1;durP2;ratioP2;P2;SDS_P1;SDS_P2;PMS_P1;PMS_P2;Temp;Humidity;BMP_temperature;BMP_pressure;BME280_temperature;BME280_humidity;BME280_pressure;Samples;Min_cycle;Max_cycle;Signal;HPM_P1;HPM_P2
2022/12/22 03:27:08;;;;;;;29.30;13.48;;;8.50;99.90;;;;;;4997318;28;20041;-41
2022/12/22 03:29:34;;;;;;;31.52;13.60;;;8.50;99.90;;;;;;4997148;28;20038;-42
2022/12/22 03:31:59;;;;;;;41.75;15.38;;;8.50;99.90;;;;;;4997700;28;20037;-43
2022/12/22 03:34:25;;;;;;;33.75;13.85;;;8.50;99.90;;;;;;4995761;28;20042;-43
2022/12/22 03:36:51;;;;;;;37.70;14.38;;;8.50;99.90;;;;;;4998892;28;20466;-40
2022/12/22 03:39:16;;;;;;;40.90;15.07;;;8.50;99.90;;;;;;5002920;28;20038;-41
2022/12/22 03:47:10;;;;;;;35.22;14.20;;;8.50;99.90;;;;;;4993668;28;20082;-40
2022/12/22 03:49:36;;;;;;;34.58;12.90;;;8.40;99.90;;;;;;4995528;28;20057;-42
2022/12/22 03:52:02;;;;;;;22.70;10.98;;;8.40;99.90;;;;;;5004132;28;20037;-51
2022/12/22 03:54:27;;;;;;;94.00;16.65;;;8.40;99.90;;;;;;4997637;28;20168;-43
2022/12/22 03:56:53;;;;;;;96.60;18.50;;;8.40;99.90;;;;;;5003346;28;20038;-42
2022/12/22 03:59:19;;;;;;;43.58;14.13;;;8.40;99.90;;;;;;4999867;28;20121;-44
2022/12/22 04:01:48;;;;;;;45.13;14.77;;;8.40;99.90;;;;;;4996912;28;20041;-44
2022/12/22 04:04:16;;;;;;;28.42;12.27;;;8.40;99.90;;;;;;5007492;28;20075;-42
2022/12/22 04:06:42;;;;;;;45.20;14.98;;;8.40;99.90;;;;;;5001178;28;20088;-43
2022/12/22 04:09:08;;;;;;;35.88;14.38;;;8.40;99.90;;;;;;4995482;28;20163;-40
2022/12/22 04:14:19;;;;;;;23.77;11.15;;;8.40;99.90;;;;;;4996278;28;20081;-45
2022/12/22 04:16:44;;;;;;;22.40;10.55;;;8.40;99.90;;;;;;4997498;28;20100;-45
2022/12/22 04:19:10;;;;;;;21.00;9.77;;;8.40;99.90;;;;;;4997568;28;20498;-45
2022/12/22 04:21:36;;;;;;;24.98;10.20;;;8.40;99.90;;;;;;5005264;28;20073;-42
2022/12/22 04:24:02;;;;;;;30.20;12.90;;;8.40;99.90;;;;;;4997880;28;20041;-41
2022/12/22 04:26:29;;;;;;;25.48;12.27;;;8.50;99.90;;;;;;4975262;28;20526;-40
2022/12/22 04:28:54;;;;;;;23.70;11.35;;;8.50;99.90;;;;;;4993034;28;20046;-42
2022/12/22 04:31:21;;;;;;;30.67;12.30;;;8.50;99.90;;;;;;4995217;28;20561;-43
2022/12/22 04:33:47;;;;;;;21.73;10.05;;;8.50;99.90;;;;;;5002931;28;20034;-50
2022/12/22 04:36:13;;;;;;;36.60;13.95;;;8.50;99.90;;;;;;5000850;28;20042;-42
2022/12/22 04:38:39;;;;;;;21.30;10.57;;;8.50;99.90;;;;;;5001333;28;20037;-42
2022/12/22 04:41:05;;;;;;;29.90;12.13;;;8.40;99.90;;;;;;4995493;28;20578;-43
2022/12/22 04:43:31;;;;;;;37.35;14.70;;;8.50;99.90;;;;;;5001186;28;20046;-41
2022/12/22 04:45:57;;;;;;;25.20;10.93;;;8.50;99.90;;;;;;4995793;28;20415;-43
2022/12/22 04:48:24;;;;;;;22.67;10.98;;;8.50;99.90;;;;;;4997833;28;20068;-42
2022/12/22 04:50:51;;;;;;;34.08;13.02;;;8.50;99.90;;;;;;4996837;28;20034;-39
2022/12/22 04:53:17;;;;;;;28.92;12.70;;;8.50;99.90;;;;;;4991396;28;20535;-42
2022/12/22 04:55:46;;;;;;;24.90;11.82;;;8.50;99.90;;;;;;5002551;28;20134;-47
2022/12/22 04:58:12;;;;;;;32.03;12.52;;;8.50;99.90;;;;;;4996625;28;20034;-40
2022/12/22 05:00:38;;;;;;;56.20;16.60;;;8.50;99.90;;;;;;4994784;28;20042;-44
2022/12/22 05:03:03;;;;;;;43.45;15.30;;;8.50;99.90;;;;;;4982681;28;20046;-48
2022/12/22 05:05:29;;;;;;;40.70;15.38;;;8.50;99.90;;;;;;5000387;28;20049;-44
2022/12/22 05:07:55;;;;;;;36.45;14.35;;;8.50;99.90;;;;;;4998736;28;20039;-44
2022/12/22 05:10:20;;;;;;;32.72;13.88;;;8.40;99.90;;;;;;4998613;28;20034;-42
2022/12/22 05:12:55;;;;;;;52.95;17.33;;;8.40;99.90;;;;;;5000383;28;20048;-46
2022/12/22 05:15:22;;;;;;;56.88;16.40;;;8.40;99.90;;;;;;4999093;28;20052;-44
2022/12/22 05:17:48;;;;;;;65.25;18.00;;;8.40;99.90;;;;;;4995176;28;20038;-42
2022/12/22 05:20:14;;;;;;;43.67;15.65;;;8.40;99.90;;;;;;5000219;28;20221;-42
2022/12/22 05:22:40;;;;;;;48.08;15.52;;;8.40;99.90;;;;;;5009696;28;20038;-43
2022/12/22 05:25:06;;;;;;;47.22;15.30;;;8.40;99.90;;;;;;5008056;28;20559;-43
2022/12/22 05:27:32;;;;;;;49.65;16.00;;;8.40;99.90;;;;;;5004020;28;20129;-42
2022/12/22 05:29:57;;;;;;;45.67;15.55;;;8.40;99.90;;;;;;5000872;28;20042;-40
2022/12/22 05:32:23;;;;;;;41.47;14.10;;;8.30;99.90;;;;;;4997596;28;20785;-41
2022/12/22 05:34:49;;;;;;;51.20;15.57;;;8.30;99.90;;;;;;5001422;28;20133;-42
2022/12/22 05:37:14;;;;;;;43.67;14.50;;;8.40;99.90;;;;;;5009023;28;20044;-43
2022/12/22 05:39:40;;;;;;;47.47;15.43;;;8.40;99.90;;;;;;5004084;28;20039;-44
2022/12/22 05:42:06;;;;;;;56.50;15.50;;;8.40;99.90;;;;;;5003105;28;20519;-43
2022/12/22 05:44:31;;;;;;;44.38;14.63;;;8.40;99.90;;;;;;5007330;28;20042;-40
2022/12/22 05:46:57;;;;;;;39.63;13.95;;;8.40;99.90;;;;;;5006417;28;20048;-42
2022/12/22 05:49:23;;;;;;;35.38;11.68;;;8.40;99.90;;;;;;5001487;28;20689;-46
2022/12/22 05:51:48;;;;;;;38.88;12.32;;;8.30;99.90;;;;;;5000511;28;20127;-44
2022/12/22 05:54:14;;;;;;;47.42;14.63;;;8.30;99.90;;;;;;5000271;28;20119;-41
2022/12/22 05:56:40;;;;;;;50.90;14.80;;;8.30;99.90;;;;;;5004278;28;20124;-46
2022/12/22 05:59:06;;;;;;;41.47;12.73;;;8.30;99.90;;;;;;4981994;28;20048;-44
2022/12/22 06:01:31;;;;;;;48.90;14.23;;;8.30;99.90;;;;;;5001049;28;20034;-44
2022/12/22 06:03:57;;;;;;;49.63;15.98;;;8.30;99.90;;;;;;5002074;28;20041;-44
2022/12/22 06:06:23;;;;;;;62.25;16.00;;;8.30;99.90;;;;;;4991645;28;20041;-46
2022/12/22 06:08:48;;;;;;;59.78;15.73;;;8.30;99.90;;;;;;5005924;28;20038;-44
2022/12/22 06:11:17;;;;;;;161.75;23.38;;;8.20;99.90;;;;;;5005979;28;20038;-44
2022/12/22 06:13:44;;;;;;;336.10;32.22;;;8.20;99.90;;;;;;4997197;28;20541;-42
2022/12/22 06:16:10;;;;;;;298.70;30.95;;;8.10;99.90;;;;;;4978936;28;20520;-43
2022/12/22 06:18:36;;;;;;;231.88;23.83;;;8.10;99.90;;;;;;4981214;28;20054;-42
2022/12/22 06:21:02;;;;;;;188.93;23.05;;;8.00;99.90;;;;;;4994945;28;20042;-46
2022/12/22 06:23:28;;;;;;;185.82;23.23;;;7.90;99.90;;;;;;4999577;28;20072;-46
2022/12/22 06:26:01;;;;;;;175.73;22.90;;;7.90;99.90;;;;;;5001722;28;20400;-42
2022/12/22 06:28:27;;;;;;;133.30;17.95;;;7.80;99.90;;;;;;5000200;28;20494;-43
2022/12/22 06:30:54;;;;;;;192.27;21.55;;;7.80;99.90;;;;;;4981638;28;20783;-46
2022/12/22 06:33:20;;;;;;;141.75;18.17;;;7.80;99.90;;;;;;4993822;28;20034;-41
2022/12/22 06:35:46;;;;;;;138.63;19.42;;;7.80;99.90;;;;;;4993474;28;20143;-41
2022/12/22 06:38:12;;;;;;;213.57;23.40;;;7.70;99.90;;;;;;4992137;28;20038;-41
2022/12/22 06:40:37;;;;;;;233.90;24.98;;;7.70;99.90;;;;;;4989140;28;20074;-43
2022/12/22 06:43:09;;;;;;;164.73;20.25;;;7.70;99.90;;;;;;4997414;28;20038;-41
2022/12/22 06:45:40;;;;;;;212.45;21.83;;;7.60;99.90;;;;;;4985908;28;20454;-42
2022/12/22 06:48:07;;;;;;;226.45;23.30;;;7.60;99.90;;;;;;4990541;28;20038;-46
2022/12/22 06:50:34;;;;;;;223.50;23.08;;;7.50;99.90;;;;;;4993320;28;20504;-42
2022/12/22 06:53:00;;;;;;;214.55;21.52;;;7.50;99.90;;;;;;4979214;28;20045;-43
2022/12/22 06:55:26;;;;;;;246.95;22.98;;;7.40;99.90;;;;;;5000174;28;20046;-40
2022/12/22 06:57:51;;;;;;;164.85;19.55;;;7.40;99.90;;;;;;4994557;28;20411;-42
2022/12/22 07:00:17;;;;;;;177.90;18.88;;;7.30;99.90;;;;;;4996165;28;20038;-42
2022/12/22 07:02:43;;;;;;;140.88;17.38;;;7.30;99.90;;;;;;4992482;28;20053;-42
2022/12/22 07:05:09;;;;;;;140.43;16.95;;;7.30;99.90;;;;;;4997929;28;20063;-40
2022/12/22 07:07:35;;;;;;;196.77;22.83;;;7.20;99.90;;;;;;4996862;28;20546;-38
2022/12/22 07:10:00;;;;;;;175.25;19.95;;;7.10;99.90;;;;;;5001236;28;20034;-46
2022/12/22 07:12:26;;;;;;;203.07;21.35;;;7.10;99.90;;;;;;4995413;28;20454;-43
2022/12/22 07:14:52;;;;;;;233.65;22.63;;;7.00;99.90;;;;;;4994534;28;20027;-43
2022/12/22 07:17:17;;;;;;;215.95;19.48;;;7.10;99.90;;;;;;5006468;28;20042;-47
2022/12/22 07:19:43;;;;;;;153.95;16.88;;;7.00;99.90;;;;;;4998372;28;20121;-40
2022/12/22 07:22:09;;;;;;;189.55;19.88;;;6.90;99.90;;;;;;4989133;28;20490;-47
2022/12/22 07:24:35;;;;;;;141.63;14.27;;;6.90;99.90;;;;;;4993311;28;20491;-43
2022/12/22 07:27:00;;;;;;;186.25;16.73;;;6.90;99.90;;;;;;5000181;28;20483;-45
2022/12/22 07:29:26;;;;;;;201.73;19.08;;;6.90;99.90;;;;;;5000458;28;20038;-43
2022/12/22 07:31:52;;;;;;;156.15;15.10;;;6.90;99.90;;;;;;4996052;28;20557;-44
2022/12/22 07:34:17;;;;;;;109.70;12.93;;;6.90;99.90;;;;;;5003145;28;20030;-45
2022/12/22 07:36:43;;;;;;;175.15;17.55;;;6.80;99.90;;;;;;5007673;28;20209;-59
2022/12/22 07:39:10;;;;;;;157.40;17.08;;;6.90;99.90;;;;;;5003550;28;20042;-47
2022/12/22 07:44:20;;;;;;;125.72;14.80;;;6.90;99.90;;;;;;4999997;28;20046;-38
2022/12/22 07:46:46;;;;;;;168.90;21.38;;;6.90;99.90;;;;;;5006260;28;20161;-43
2022/12/22 07:51:57;;;;;;;169.27;17.15;;;6.90;99.90;;;;;;5001991;28;20064;-47
2022/12/22 07:54:23;;;;;;;209.57;19.33;;;6.90;99.90;;;;;;5005326;28;20053;-42
2022/12/22 07:56:49;;;;;;;138.88;15.13;;;6.90;99.90;;;;;;5003294;28;20502;-44
2022/12/22 07:59:16;;;;;;;232.48;22.42;;;6.90;99.90;;;;;;5005162;28;20037;-46
2022/12/22 08:01:42;;;;;;;168.60;18.13;;;6.90;99.90;;;;;;4998789;28;20046;-47
2022/12/22 08:04:09;;;;;;;128.95;15.07;;;6.90;99.90;;;;;;5004251;28;20042;-48
2022/12/22 08:06:35;;;;;;;103.35;11.88;;;6.90;99.90;;;;;;5002113;28;20038;-45
2022/12/22 08:09:01;;;;;;;163.65;16.20;;;6.90;99.90;;;;;;5005289;28;20038;-47
2022/12/22 08:11:27;;;;;;;86.78;11.77;;;6.90;99.90;;;;;;4979536;28;20125;-44
2022/12/22 08:13:53;;;;;;;93.43;12.25;;;6.90;99.90;;;;;;5004291;28;20117;-42
2022/12/22 08:16:20;;;;;;;120.82;13.52;;;6.90;99.90;;;;;;4998402;28;20037;-45
2022/12/22 08:18:46;;;;;;;92.72;10.80;;;6.90;99.90;;;;;;5004439;28;20119;-49
2022/12/22 08:21:12;;;;;;;108.72;13.98;;;6.80;99.90;;;;;;4997380;28;20030;-44
2022/12/22 08:23:37;;;;;;;61.25;10.75;;;6.80;99.90;;;;;;5006685;28;20046;-49
2022/12/22 08:26:15;;;;;;;78.47;11.30;;;6.90;99.90;;;;;;5004400;28;20050;-45
2022/12/22 08:28:47;;;;;;;66.28;9.48;;;6.80;99.90;;;;;;5004211;28;20146;-44
2022/12/22 08:31:13;;;;;;;64.30;8.88;;;6.90;99.90;;;;;;5008087;28;20400;-47
2022/12/22 08:33:39;;;;;;;58.15;9.73;;;6.80;99.90;;;;;;4996974;28;20034;-47
2022/12/22 08:36:06;;;;;;;125.75;14.05;;;6.80;99.90;;;;;;4999980;28;20412;-45
2022/12/22 08:38:32;;;;;;;112.18;13.35;;;6.80;99.90;;;;;;5008713;28;20116;-47
2022/12/22 08:40:58;;;;;;;132.85;13.95;;;6.80;99.90;;;;;;5004148;28;20108;-45
2022/12/22 08:43:24;;;;;;;84.07;11.77;;;6.80;99.90;;;;;;5008661;28;20457;-46
2022/12/22 08:45:50;;;;;;;80.00;9.65;;;6.80;99.90;;;;;;4988017;28;20398;-44
2022/12/22 08:48:16;;;;;;;78.22;9.45;;;6.80;99.90;;;;;;5001581;28;20049;-44
2022/12/22 08:50:41;;;;;;;53.20;8.38;;;6.70;99.90;;;;;;4996492;28;20069;-45
2022/12/22 08:53:08;;;;;;;53.53;7.60;;;6.70;99.90;;;;;;4997902;28;20388;-43
2022/12/22 08:55:34;;;;;;;83.70;9.85;;;6.70;99.90;;;;;;5002705;28;20042;-46
2022/12/22 08:58:00;;;;;;;113.93;11.30;;;6.70;99.90;;;;;;5003225;28;20041;-45
2022/12/22 09:00:25;;;;;;;86.07;10.80;;;6.70;99.90;;;;;;5000419;28;20495;-42
2022/12/22 09:02:54;;;;;;;107.38;10.90;;;6.70;99.90;;;;;;5007110;28;20124;-47
2022/12/22 09:05:20;;;;;;;103.57;8.60;;;6.60;99.90;;;;;;4994479;28;20522;-46
2022/12/22 09:07:48;;;;;;;55.90;8.73;;;6.60;99.90;;;;;;5010544;28;20042;-47
2022/12/22 09:10:14;;;;;;;58.80;5.20;;;6.60;99.90;;;;;;4996887;28;20034;-43
2022/12/22 09:12:40;;;;;;;86.47;8.73;;;6.50;99.90;;;;;;4992058;28;20113;-47
2022/12/22 09:15:09;;;;;;;82.68;6.80;;;6.50;99.90;;;;;;4994245;28;20532;-42
2022/12/22 09:17:36;;;;;;;89.55;9.38;;;6.50;99.90;;;;;;4997175;28;20035;-43
2022/12/22 09:20:04;;;;;;;124.45;10.80;;;6.50;99.90;;;;;;4997190;28;20035;-48
2022/12/22 09:22:29;;;;;;;140.45;10.35;;;6.50;99.90;;;;;;4994112;28;20035;-45
2022/12/22 09:24:55;;;;;;;92.00;6.38;;;6.40;99.90;;;;;;4995968;28;20048;-46
2022/12/22 09:27:21;;;;;;;88.85;7.70;;;6.40;99.90;;;;;;4990471;28;20046;-40
2022/12/22 09:29:46;;;;;;;100.88;7.85;;;6.40;99.90;;;;;;4988026;28;20430;-41
2022/12/22 09:32:12;;;;;;;80.30;5.90;;;6.40;99.90;;;;;;4989621;28;20034;-47
2022/12/22 09:34:38;;;;;;;79.82;9.13;;;6.30;99.90;;;;;;4992366;28;20069;-43
2022/12/22 09:37:05;;;;;;;46.80;4.18;;;6.30;99.90;;;;;;4990592;28;20512;-46
2022/12/22 09:39:31;;;;;;;34.22;3.40;;;6.30;99.90;;;;;;4995636;28;20196;-43
2022/12/22 09:41:58;;;;;;;42.92;5.05;;;6.20;99.90;;;;;;4993205;28;20122;-46
2022/12/22 09:44:33;;;;;;;49.95;4.90;;;6.20;99.90;;;;;;4991876;28;20049;-47
2022/12/22 09:47:01;;;;;;;49.42;6.43;;;6.30;99.90;;;;;;4994133;28;21821;-48
2022/12/22 09:49:28;;;;;;;35.53;4.35;;;6.30;99.90;;;;;;4989285;28;20094;-45
2022/12/22 09:51:57;;;;;;;26.00;4.07;;;6.30;99.90;;;;;;4996703;28;20159;-46
2022/12/22 09:54:24;;;;;;;33.42;4.47;;;6.40;99.90;;;;;;4996472;28;20073;-45
2022/12/22 09:56:50;;;;;;;23.73;4.00;;;6.40;99.90;;;;;;4996396;28;20050;-46
2022/12/22 09:59:19;;;;;;;42.97;5.65;;;6.40;99.90;;;;;;4998741;28;20076;-40
2022/12/22 10:02:09;;;;;;;23.27;4.38;;;6.40;99.90;;;;;;4989506;28;20030;-47
2022/12/22 10:05:02;;;;;;;17.40;4.07;;;6.40;99.90;;;;;;5010677;28;20052;-46
2022/12/22 10:07:38;;;;;;;75.95;7.32;;;6.50;99.90;;;;;;5001942;28;20042;-59
2022/12/22 10:10:23;;;;;;;31.85;5.03;;;6.50;99.90;;;;;;5000039;28;20034;-44
2022/12/22 10:12:50;;;;;;;30.05;4.45;;;6.50;99.90;;;;;;5001383;28;20042;-48
2022/12/22 10:15:16;;;;;;;25.98;5.20;;;6.50;99.90;;;;;;5008680;28;20065;-43
2022/12/22 10:17:42;;;;;;;28.00;4.68;;;6.60;99.90;;;;;;5008236;28;20494;-48
2022/12/22 10:20:21;;;;;;;33.17;6.53;;;6.60;99.90;;;;;;4998772;28;20462;-49
2022/12/22 10:22:57;;;;;;;36.38;5.00;;;6.60;99.90;;;;;;4996112;28;21572;-44
2022/12/22 10:25:30;;;;;;;32.55;6.30;;;6.70;99.90;;;;;;5003239;28;20041;-45
2022/12/22 10:27:58;;;;;;;20.05;5.45;;;6.70;99.90;;;;;;4997977;28;20042;-48
2022/12/22 10:30:30;;;;;;;27.13;5.93;;;6.80;99.90;;;;;;4992793;28;20046;-45
2022/12/22 10:33:08;;;;;;;23.75;5.25;;;6.80;99.90;;;;;;4990270;28;20518;-44
2022/12/22 10:35:43;;;;;;;20.23;5.47;;;6.90;99.90;;;;;;5002057;28;20046;-43
2022/12/22 10:38:25;;;;;;;18.92;5.72;;;7.00;99.90;;;;;;4998655;28;20369;-47
2022/12/22 10:41:03;;;;;;;21.77;5.80;;;7.20;99.90;;;;;;5003686;28;20037;-43
2022/12/22 10:43:32;;;;;;;15.50;5.45;;;7.40;99.90;;;;;;4984722;28;20041;-44
2022/12/22 10:45:59;;;;;;;19.63;5.53;;;7.70;99.90;;;;;;4990835;28;20096;-46
2022/12/22 10:48:36;;;;;;;16.35;6.20;;;8.10;99.90;;;;;;5007789;28;20136;-44
2022/12/22 10:51:05;;;;;;;17.30;6.10;;;8.60;99.90;;;;;;5003895;28;20564;-46
2022/12/22 10:53:42;;;;;;;17.60;5.80;;;9.00;99.90;;;;;;5012153;28;20038;-42
2022/12/22 10:56:27;;;;;;;17.85;6.13;;;9.10;99.90;;;;;;4994515;28;20085;-46
2022/12/22 10:59:17;;;;;;;16.55;5.75;;;9.20;99.90;;;;;;5000424;28;20038;-54
2022/12/22 11:01:43;;;;;;;12.02;4.85;;;9.40;99.90;;;;;;4989482;28;20038;-46
2022/12/22 11:04:26;;;;;;;13.55;5.43;;;9.60;99.90;;;;;;4998955;28;20095;-44
2022/12/22 11:06:54;;;;;;;18.52;5.90;;;9.90;99.90;;;;;;4998711;28;20042;-44
2022/12/22 11:09:20;;;;;;;13.10;5.15;;;10.20;99.90;;;;;;4991645;28;20036;-38
2022/12/22 11:11:58;;;;;;;14.40;4.57;;;10.30;99.90;;;;;;4987999;28;20049;-44
2022/12/22 11:14:42;;;;;;;12.35;4.57;;;10.50;99.90;;;;;;4995371;28;20137;-46
2022/12/22 11:17:21;;;;;;;13.07;4.20;;;10.70;99.90;;;;;;4990200;28;20046;-47
2022/12/22 11:20:06;;;;;;;11.38;3.38;;;10.80;99.90;;;;;;4994372;28;20042;-44
2022/12/22 11:22:49;;;;;;;13.48;3.40;;;10.90;99.90;;;;;;5005280;28;20056;-44
2022/12/22 11:25:35;;;;;;;12.68;3.03;;;11.00;99.90;;;;;;4995518;28;20034;-45
2022/12/22 11:28:09;;;;;;;8.20;3.05;;;11.00;99.90;;;;;;4993337;28;20415;-47
2022/12/22 11:30:50;;;;;;;9.82;3.53;;;11.10;99.90;;;;;;5001286;28;20036;-44
2022/12/22 11:33:24;;;;;;;15.13;4.47;;;11.10;99.90;;;;;;4985535;28;20038;-40
2022/12/22 11:35:53;;;;;;;12.93;4.13;;;11.20;99.90;;;;;;4986025;28;20048;-44
2022/12/22 11:38:55;;;;;;;14.43;4.80;;;11.20;99.90;;;;;;4991642;28;20042;-47
2022/12/22 11:41:56;;;;;;;9.05;3.83;;;11.40;99.90;;;;;;4991570;28;20455;-43
2022/12/22 11:44:44;;;;;;;15.57;4.93;;;11.50;99.90;;;;;;4986985;28;20130;-47
2022/12/22 11:47:38;;;;;;;9.50;4.57;;;11.60;99.90;;;;;;5001126;28;20038;-47
2022/12/22 11:50:22;;;;;;;14.55;4.90;;;11.70;99.90;;;;;;5004249;28;20053;-45
2022/12/22 11:53:22;;;;;;;12.73;4.90;;;11.90;99.90;;;;;;4993702;28;20038;-42
2022/12/22 11:56:00;;;;;;;12.63;4.60;;;12.20;99.90;;;;;;4995499;28;20503;-46
2022/12/22 11:58:50;;;;;;;12.95;4.78;;;12.20;99.90;;;;;;4998776;28;20046;-43
2022/12/22 12:01:36;;;;;;;11.15;4.30;;;12.20;99.90;;;;;;4998383;28;20042;-44
2022/12/22 12:04:39;;;;;;;12.23;4.93;;;12.30;99.90;;;;;;5007890;28;20398;-46
2022/12/22 12:07:43;;;;;;;13.93;4.22;;;12.40;99.90;;;;;;5004666;28;20037;-43
2022/12/22 12:10:23;;;;;;;12.32;4.00;;;12.60;99.90;;;;;;4969537;28;20034;-46
2022/12/22 12:12:58;;;;;;;12.35;3.90;;;12.70;99.90;;;;;;4958875;28;20047;-46
2022/12/22 12:15:39;;;;;;;10.05;4.32;;;12.90;99.90;;;;;;4985905;28;20049;-40
2022/12/22 12:18:32;;;;;;;13.20;3.50;;;12.80;99.90;;;;;;5004682;28;20029;-45
2022/12/22 12:21:22;;;;;;;9.77;3.83;;;12.80;99.90;;;;;;4992141;28;20072;-46
2022/12/22 12:23:48;;;;;;;12.25;3.75;;;12.90;99.90;;;;;;5000531;28;20069;-53
2022/12/22 12:26:33;;;;;;;11.05;3.20;;;12.90;99.90;;;;;;4997310;28;20372;-41
2022/12/22 12:29:23;;;;;;;10.75;3.55;;;13.00;99.90;;;;;;5015756;28;20038;-46
2022/12/22 12:32:08;;;;;;;7.88;3.05;;;13.10;99.90;;;;;;4988370;28;20496;-42
2022/12/22 12:34:38;;;;;;;7.03;2.95;;;13.20;99.90;;;;;;4993435;28;20112;-44
2022/12/22 12:37:16;;;;;;;8.80;2.92;;;13.30;99.90;;;;;;4998824;28;20109;-44
2022/12/22 12:39:50;;;;;;;6.82;2.58;;;13.50;99.90;;;;;;5001588;28;20077;-46
2022/12/22 12:42:36;;;;;;;7.75;2.63;;;13.40;99.90;;;;;;5007156;28;20041;-43
2022/12/22 12:45:04;;;;;;;7.40;2.78;;;13.60;99.90;;;;;;4994938;28;20120;-45
2022/12/22 12:47:34;;;;;;;8.63;2.95;;;13.60;99.90;;;;;;4998443;28;20046;-43
2022/12/22 12:49:59;;;;;;;9.23;3.25;;;13.50;99.90;;;;;;4994665;28;20052;-47
2022/12/22 12:52:42;;;;;;;10.25;3.80;;;13.60;99.90;;;;;;4999822;28;20436;-43
2022/12/22 12:55:36;;;;;;;6.85;3.10;;;13.40;99.90;;;;;;4993351;28;20046;-45
2022/12/22 12:58:04;;;;;;;8.98;2.88;;;13.70;99.90;;;;;;5003088;28;20057;-44
2022/12/22 13:00:33;;;;;;;7.80;2.97;;;14.00;99.90;;;;;;4996372;28;20050;-44
2022/12/22 13:02:59;;;;;;;8.65;3.13;;;14.10;99.90;;;;;;4998408;28;20552;-44
2022/12/22 13:05:48;;;;;;;8.18;3.13;;;14.10;99.90;;;;;;4987857;28;20097;-44
2022/12/22 13:08:19;;;;;;;7.38;3.15;;;14.10;99.90;;;;;;5004317;28;20034;-48
2022/12/22 13:10:52;;;;;;;7.00;2.78;;;14.10;99.90;;;;;;5000816;28;20523;-43
2022/12/22 13:13:20;;;;;;;9.60;3.10;;;13.90;99.90;;;;;;4992123;28;20045;-42
2022/12/22 13:15:59;;;;;;;6.93;2.70;;;13.60;99.90;;;;;;4996289;28;20049;-41
2022/12/22 13:18:25;;;;;;;7.07;2.40;;;13.50;99.90;;;;;;4987992;28;20065;-41
2022/12/22 13:21:14;;;;;;;8.52;2.80;;;13.10;99.90;;;;;;4990834;28;20151;-41
2022/12/22 13:23:43;;;;;;;8.27;3.00;;;12.80;99.90;;;;;;4996784;28;20042;-44
2022/12/22 13:26:14;;;;;;;8.70;2.50;;;12.50;99.90;;;;;;5002293;28;20096;-45
2022/12/22 13:28:44;;;;;;;6.38;2.40;;;12.30;99.90;;;;;;4998687;28;20038;-42
2022/12/22 13:31:19;;;;;;;6.15;2.40;;;12.10;99.90;;;;;;4993787;28;20039;-45
2022/12/22 13:33:47;;;;;;;7.57;2.40;;;12.00;99.90;;;;;;4994862;28;20145;-47
2022/12/22 13:36:25;;;;;;;6.43;2.10;;;11.70;99.90;;;;;;4995858;28;20042;-45
2022/12/22 13:39:03;;;;;;;7.05;2.10;;;11.30;99.90;;;;;;4995745;28;20412;-44
2022/12/22 13:41:31;;;;;;;7.50;2.47;;;11.00;99.90;;;;;;5010005;28;20042;-46
2022/12/22 13:44:04;;;;;;;6.88;2.30;;;10.80;99.90;;;;;;5009998;28;20041;-47
2022/12/22 13:46:34;;;;;;;4.60;2.05;;;10.70;99.90;;;;;;5000196;28;20538;-44
2022/12/22 13:49:03;;;;;;;7.13;2.40;;;10.60;99.90;;;;;;5005592;28;20062;-44
2022/12/22 13:51:34;;;;;;;7.68;2.30;;;10.40;99.90;;;;;;4998924;28;20038;-45
2022/12/22 13:54:09;;;;;;;8.88;1.83;;;10.40;99.90;;;;;;5002823;28;20049;-46
2022/12/22 13:56:47;;;;;;;8.75;2.00;;;10.30;99.90;;;;;;5003698;28;20080;-43
2022/12/22 13:59:34;;;;;;;7.45;2.33;;;10.20;99.90;;;;;;4998446;28;20050;-42
2022/12/22 14:02:10;;;;;;;7.88;2.15;;;10.10;99.90;;;;;;4996419;28;20125;-46
2022/12/22 14:04:37;;;;;;;7.60;2.10;;;10.00;99.90;;;;;;5008735;28;20048;-43
2022/12/22 14:07:10;;;;;;;6.38;1.80;;;9.90;99.90;;;;;;5004082;28;20121;-41
2022/12/22 14:09:35;;;;;;;7.95;1.90;;;9.80;99.90;;;;;;5001635;28;20049;-39
2022/12/22 14:12:01;;;;;;;6.35;1.88;;;9.70;99.90;;;;;;5017552;28;20063;-43
2022/12/22 14:14:53;;;;;;;6.13;1.83;;;9.60;99.90;;;;;;5001363;28;20120;-47
2022/12/22 14:17:31;;;;;;;7.13;1.92;;;9.60;99.90;;;;;;4996222;28;20061;-44
2022/12/22 14:19:59;;;;;;;4.72;1.58;;;9.60;99.90;;;;;;4986736;28;20049;-45
2022/12/22 14:22:27;;;;;;;6.50;1.83;;;9.60;99.90;;;;;;5004670;28;20034;-42
2022/12/22 14:25:00;;;;;;;3.67;1.60;;;9.60;99.90;;;;;;5002376;28;20117;-42
2022/12/22 14:27:45;;;;;;;7.35;1.95;;;9.60;99.90;;;;;;5000869;28;20042;-43
2022/12/22 14:30:37;;;;;;;5.10;1.60;;;9.60;99.90;;;;;;5008904;28;20109;-46
2022/12/22 14:33:26;;;;;;;7.18;1.95;;;9.50;99.90;;;;;;4995092;28;20125;-43
2022/12/22 14:36:22;;;;;;;5.75;1.50;;;9.50;99.90;;;;;;5002200;28;20041;-46
2022/12/22 14:38:54;;;;;;;8.75;2.35;;;9.40;99.90;;;;;;5010578;28;20041;-44
2022/12/22 14:41:40;;;;;;;3.30;1.57;;;9.30;99.90;;;;;;5007232;28;20042;-46
2022/12/22 14:44:36;;;;;;;8.65;2.30;;;9.30;99.90;;;;;;5008464;28;20295;-44
2022/12/22 14:47:19;;;;;;;5.10;1.75;;;9.20;99.90;;;;;;4995494;28;20053;-45
2022/12/22 14:49:58;;;;;;;7.82;1.77;;;9.20;99.90;;;;;;5007483;28;20062;-45
2022/12/22 14:52:27;;;;;;;5.82;1.67;;;9.10;99.90;;;;;;5005541;28;20052;-46
2022/12/22 14:54:54;;;;;;;4.13;2.15;;;9.10;99.90;;;;;;5006750;28;20749;-46
2022/12/22 14:57:30;;;;;;;4.57;1.90;;;9.00;99.90;;;;;;5004049;28;20492;-45
2022/12/22 15:00:07;;;;;;;5.47;2.00;;;9.00;99.90;;;;;;4999699;28;20045;-47
2022/12/22 15:02:38;;;;;;;6.57;2.30;;;8.90;99.90;;;;;;4982182;28;20466;-44
2022/12/22 15:05:23;;;;;;;7.78;2.80;;;8.90;99.90;;;;;;5004031;28;20042;-44
2022/12/22 15:07:52;;;;;;;6.45;2.90;;;8.80;99.90;;;;;;5007364;28;20129;-46
2022/12/22 15:10:17;;;;;;;6.93;2.83;;;8.70;99.90;;;;;;4985719;28;20037;-45
2022/12/22 15:12:45;;;;;;;10.07;3.30;;;8.70;99.90;;;;;;5000995;28;20049;-43
2022/12/22 15:15:20;;;;;;;7.13;3.20;;;8.70;99.90;;;;;;4989970;28;20052;-47
2022/12/22 15:17:51;;;;;;;9.82;4.10;;;8.60;99.90;;;;;;4998331;28;20049;-45
2022/12/22 15:20:22;;;;;;;9.73;3.97;;;8.60;99.90;;;;;;4996998;28;20038;-46
2022/12/22 15:22:48;;;;;;;7.50;3.67;;;8.50;99.90;;;;;;4995335;28;20092;-43
2022/12/22 15:25:20;;;;;;;8.95;4.03;;;8.50;99.90;;;;;;4995733;28;20128;-41
2022/12/22 15:27:46;;;;;;;8.32;3.85;;;8.40;99.90;;;;;;4992045;28;20407;-46
2022/12/22 15:30:18;;;;;;;10.80;4.47;;;8.30;99.90;;;;;;4995128;28;20038;-42
2022/12/22 15:32:44;;;;;;;8.20;4.22;;;8.30;99.90;;;;;;4993164;28;20125;-47
2022/12/22 15:35:26;;;;;;;10.35;5.15;;;8.20;99.90;;;;;;4995103;28;20033;-47
2022/12/22 15:37:51;;;;;;;14.18;4.65;;;8.20;99.90;;;;;;4977662;28;20046;-50
2022/12/22 15:40:20;;;;;;;10.38;5.22;;;8.10;99.90;;;;;;4996111;28;20567;-46
2022/12/22 15:42:46;;;;;;;11.98;5.63;;;8.10;99.90;;;;;;4998982;28;20389;-47
2022/12/22 15:45:12;;;;;;;12.75;5.80;;;8.00;99.90;;;;;;4981387;28;20085;-39
2022/12/22 15:47:43;;;;;;;15.80;7.00;;;7.90;99.90;;;;;;4993985;28;20426;-45
2022/12/22 15:50:17;;;;;;;12.30;6.03;;;7.80;99.90;;;;;;5000460;28;20054;-43
2022/12/22 15:52:51;;;;;;;11.88;5.72;;;7.80;99.90;;;;;;4997935;28;20038;-45
2022/12/22 15:55:18;;;;;;;12.30;6.63;;;7.70;99.90;;;;;;5000417;28;20067;-46
2022/12/22 15:57:45;;;;;;;15.20;7.07;;;7.60;99.90;;;;;;4983874;28;20057;-39
2022/12/22 16:00:12;;;;;;;13.70;6.60;;;7.60;99.90;;;;;;4982138;28;20825;-42
2022/12/22 16:02:38;;;;;;;14.20;7.07;;;7.60;99.90;;;;;;4987506;28;20514;-46
2022/12/22 16:05:04;;;;;;;14.82;6.82;;;7.60;99.90;;;;;;4991851;28;20104;-42
2022/12/22 16:07:30;;;;;;;13.05;6.93;;;7.60;99.90;;;;;;4991599;28;20042;-45
2022/12/22 16:09:57;;;;;;;13.02;7.13;;;7.60;99.90;;;;;;4991469;28;20038;-43
2022/12/22 16:12:23;;;;;;;14.10;6.35;;;7.60;99.90;;;;;;5000755;28;20032;-41
2022/12/22 16:14:53;;;;;;;15.18;7.05;;;7.60;99.90;;;;;;4996400;28;20129;-44
2022/12/22 16:17:21;;;;;;;14.15;6.63;;;7.70;99.90;;;;;;4999965;28;20073;-45
2022/12/22 16:19:47;;;;;;;14.68;6.57;;;7.60;99.90;;;;;;5005681;28;20510;-41
2022/12/22 16:22:16;;;;;;;16.42;7.55;;;7.60;99.90;;;;;;5001119;28;20104;-46
2022/12/22 16:24:45;;;;;;;14.38;6.68;;;7.60;99.90;;;;;;5002965;28;20034;-47
2022/12/22 16:27:11;;;;;;;17.67;7.15;;;7.60;99.90;;;;;;4974082;28;20185;-45
2022/12/22 16:29:38;;;;;;;12.90;6.15;;;7.50;99.90;;;;;;4998200;28;20464;-44
2022/12/22 16:32:33;;;;;;;15.05;6.63;;;7.60;99.90;;;;;;5001884;28;20037;-42
2022/12/22 16:35:14;;;;;;;14.77;6.63;;;7.60;99.90;;;;;;4985314;28;20049;-43
2022/12/22 16:37:40;;;;;;;15.07;8.15;;;7.60;99.90;;;;;;4993051;28;20045;-45
2022/12/22 16:40:07;;;;;;;17.35;8.02;;;7.60;99.90;;;;;;4992974;28;20706;-43